FW9477 Weather Reports


Display with metric or nautical units.
time (UTC)temp
F
wind
direction
speed
MPH
gust
MPH
rain 1hr
in
rain 24hr
in
rain mn
in
humidity
%
barometer
mb
20220518230713 53 234 0.0 0.0 0.04 0.07 0.07 94 1016.4
20220518225211 53 313 1.0 1.0 0.00 0.07 0.07 93 1016.2
20220518223710 53 268 3.0 5.0 0.00 0.07 0.07 92 1016.4
20220518222209 54 269 1.0 1.0 0.00 0.07 0.07 89 1016.0
20220518220708 54 243 0.0 1.0 0.00 0.07 0.07 91 1016.1
20220518215208 54 286 2.0 2.0 0.00 0.07 0.07 92 1016.5
20220518213706 54 236 0.0 0.0 0.00 0.07 0.07 92 1016.6
20220518212206 53 249 0.0 0.0 0.00 0.07 0.07 93 1016.6
20220518210706 53 290 1.0 2.0 0.00 0.07 0.07 93 1017.2
20220518205206 52 230 0.0 0.0 0.00 0.07 0.07 94 1017.0
20220518203706 52 281 3.0 3.0 0.00 0.07 0.07 94 1017.4
20220518202205 52 238 0.0 1.0 0.00 0.07 0.07 96 1017.8
20220518200705 52 238 0.0 0.0 0.07 0.07 0.07 96 1017.9
20220518195205 51 202 0.0 1.0 0.07 0.05 0.05 96 1017.9
20220518193704 51 158 1.0 1.0 0.04 0.04 0.04 96 1018.1
20220518192204 51 179 1.0 1.0 0.07 0.03 0.03 93 1018.7
20220518190704 52 190 1.0 1.0 0.04 0.02 0.02 93 1018.9
20220518185203 52 27 1.0 1.0 0.07 0.02 0.02 93 1019.7
20220518183703 52 233 0.0 0.0 0.00 0.00 0.00 93 1019.0
20220518182202 52 228 0.0 0.0 0.00 0.00 0.00 92 1019.3
20220518180702 52 239 0.0 0.0 0.04 0.00 0.00 91 1019.3
20220518175201 53 235 0.0 0.0 0.00 0.00 0.00 84 1019.5
20220518173701 53 233 0.0 0.0 0.00 0.00 0.00 80 1019.3
20220518172200 52 218 0.0 0.0 0.00 0.00 0.00 81 1019.2
20220518170700 52 34 4.0 5.0 0.00 0.00 0.00 83 1019.8
20220518165158 51 272 1.0 1.0 0.00 0.00 0.00 86 1019.5
20220518163659 51 230 0.0 0.0 0.00 0.00 0.00 87 1019.7
20220518162158 51 264 1.0 1.0 0.00 0.00 0.00 84 1020.1
20220518160657 51 266 2.0 2.0 0.00 0.00 0.00 81 1020.3
20220518155157 51 226 0.0 0.0 0.00 0.00 0.00 84 1020.5
20220518153656 50 201 1.0 1.0 0.00 0.00 0.00 84 1020.8
20220518152155 50 216 0.0 0.0 0.00 0.00 0.00 83 1020.5
20220518150653 50 221 0.0 0.0 0.00 0.00 0.00 86 1020.4
20220518145152 49 245 0.0 1.0 0.00 0.00 0.00 87 1020.9
20220518143651 48 243 0.0 0.0 0.00 0.00 0.00 89 1021.0
20220518142151 47 285 2.0 2.0 0.00 0.00 0.00 88 1021.2
20220518140651 46 237 0.0 0.0 0.00 0.00 0.00 90 1021.6
20220518135150 46 230 0.0 0.0 0.00 0.00 0.00 92 1021.3
20220518133650 46 223 0.0 0.0 0.00 0.00 0.00 93 1021.2
20220518132148 45 216 0.0 0.0 0.00 0.00 0.00 93 1021.3
20220518130648 45 231 0.0 0.0 0.00 0.00 0.00 92 1021.6
20220518125148 45 212 0.0 0.0 0.00 0.00 0.00 93 1021.8
20220518123648 45 234 0.0 0.0 0.00 0.00 0.00 92 1021.7
20220518122148 44 143 0.0 1.0 0.00 0.00 0.00 94 1021.8
20220518120647 44 212 0.0 0.0 0.00 0.00 0.00 95 1022.0
20220518115148 44 203 0.0 0.0 0.00 0.00 0.00 95 1022.0
20220518113647 44 197 0.0 1.0 0.00 0.00 0.00 95 1022.3
20220518112145 44 196 1.0 1.0 0.00 0.00 0.00 95 1022.8
20220518110645 44 216 0.0 0.0 0.00 0.00 0.00 95 1022.8
20220518105143 44 206 0.0 0.0 0.00 0.00 0.00 94 1022.6
20220518103643 44 272 0.0 0.0 0.00 0.00 0.00 94 1022.8
20220518102141 44 183 1.0 1.0 0.00 0.00 0.00 94 1022.4
20220518100642 44 69 1.0 1.0 0.00 0.00 0.00 95 1022.9
20220518095141 44 175 1.0 1.0 0.00 0.00 0.00 94 1022.8
20220518093639 45 136 1.0 1.0 0.00 0.00 0.00 94 1022.9
20220518092140 45 172 0.0 0.0 0.00 0.00 0.00 93 1022.7
20220518090638 45 202 0.0 0.0 0.00 0.00 0.00 93 1022.8
20220518085137 45 194 0.0 0.0 0.00 0.00 0.00 92 1023.0
20220518083636 46 215 0.0 0.0 0.00 0.00 0.00 92 1023.3
20220518082136 46 197 0.0 0.0 0.00 0.00 0.00 91 1023.4
20220518080636 47 166 1.0 1.0 0.00 0.00 0.00 89 1023.3
20220518075136 48 147 1.0 1.0 0.00 0.00 0.00 88 1023.0
20220518073636 48 205 0.0 0.0 0.00 0.00 0.00 88 1023.4
20220518072137 48 18 0.0 0.0 0.00 0.00 0.00 86 1023.4
20220518070635 48 211 0.0 0.0 0.00 0.00 0.00 87 1023.3
20220518065135 49 215 0.0 0.0 0.00 0.01 0.01 84 1023.0
20220518063635 50 212 0.0 0.0 0.00 0.01 0.01 82 1023.2
20220518062134 50 213 0.0 0.0 0.00 0.01 0.01 81 1023.3
20220518060634 51 240 0.0 0.0 0.00 0.01 0.01 81 1023.4
20220518055134 52 200 0.0 0.0 0.00 0.01 0.01 77 1023.4
20220518053635 53 292 0.0 0.0 0.00 0.01 0.01 73 1023.0
20220518052134 53 190 0.0 0.0 0.00 0.01 0.01 72 1023.0
20220518050633 53 283 0.0 0.0 0.00 0.01 0.01 73 1022.9
20220518045132 54 292 0.0 0.0 0.00 0.01 0.01 70 1023.0
20220518043632 55 180 0.0 0.0 0.00 0.01 0.01 69 1022.9
20220518042132 56 216 0.0 0.0 0.00 0.01 0.01 63 1022.9
20220518040632 57 231 0.0 0.0 0.00 0.01 0.01 62 1022.6
20220518035131 57 201 0.0 0.0 0.00 0.01 0.01 61 1022.4
20220518033631 58 216 0.0 0.0 0.00 0.01 0.01 63 1022.4
20220518032130 59 223 0.0 0.0 0.00 0.01 0.01 61 1022.3
20220518030630 60 297 1.0 1.0 0.00 0.01 0.01 56 1022.1
20220518025130 60 202 0.0 0.0 0.00 0.01 0.01 57 1022.4
20220518023630 61 231 0.0 0.0 0.00 0.01 0.01 55 1022.2
20220518022129 62 227 0.0 0.0 0.00 0.01 0.01 51 1022.1
20220518020629 63 279 2.0 2.0 0.00 0.01 0.01 49 1021.9
20220518015128 64 275 3.0 3.0 0.00 0.01 0.01 46 1022.0
20220518013627 64 250 3.0 5.0 0.00 0.01 0.01 46 1021.9
20220518012127 65 288 2.0 2.0 0.00 0.01 0.01 46 1021.9
20220518010626 66 265 3.0 3.0 0.00 0.01 0.01 44 1021.7
20220518005125 66 284 5.0 8.0 0.00 0.01 0.01 45 1021.8
20220518003625 67 302 7.0 8.0 0.00 0.01 0.01 44 1021.7
20220518002123 68 268 4.0 5.0 0.00 0.01 0.01 44 1021.7
20220518000622 68 286 2.0 2.0 0.00 0.01 0.01 45 1021.8
20220517235121 67 289 3.0 7.0 0.00 0.01 0.01 46 1021.9
20220517233621 68 249 2.0 5.0 0.00 0.01 0.01 45 1021.9
20220517232120 68 251 2.0 2.0 0.00 0.01 0.01 45 1021.9